sensor_id;sensor_type;location;lat;lon;timestamp;pressure;altitude;pressure_sealevel;temperature;humidity
8501;BME280;4288;48.484;10.024;2023-04-08T00:00:56;95742.06;;;5.97;nan
8501;BME280;4288;48.484;10.024;2023-04-08T00:03:23;95738.81;;;5.88;nan
8501;BME280;4288;48.484;10.024;2023-04-08T00:05:50;95736.75;;;5.97;nan
8501;BME280;4288;48.484;10.024;2023-04-08T00:08:17;95738.31;;;5.98;nan
8501;BME280;4288;48.484;10.024;2023-04-08T00:10:45;95736.75;;;5.97;nan
8501;BME280;4288;48.484;10.024;2023-04-08T00:13:12;95741.03;;;6.01;nan
8501;BME280;4288;48.484;10.024;2023-04-08T00:15:41;95743.25;;;5.99;nan
8501;BME280;4288;48.484;10.024;2023-04-08T00:18:08;95742.59;;;6.02;nan
8501;BME280;4288;48.484;10.024;2023-04-08T00:20:35;95741.03;;;6.01;nan
8501;BME280;4288;48.484;10.024;2023-04-08T00:23:02;95744.09;;;6.03;nan
8501;BME280;4288;48.484;10.024;2023-04-08T00:25:30;95739.81;;;5.99;nan
8501;BME280;4288;48.484;10.024;2023-04-08T00:27:57;95742.22;;;6.04;nan
8501;BME280;4288;48.484;10.024;2023-04-08T00:30:24;95741.53;;;6.07;nan
8501;BME280;4288;48.484;10.024;2023-04-08T00:32:53;95740.69;;;6.03;nan
8501;BME280;4288;48.484;10.024;2023-04-08T00:35:21;95740.53;;;5.96;nan
8501;BME280;4288;48.484;10.024;2023-04-08T00:37:48;95736.34;;;6.10;nan
8501;BME280;4288;48.484;10.024;2023-04-08T00:40:15;95737.00;;;6.07;nan
8501;BME280;4288;48.484;10.024;2023-04-08T00:42:42;95734.69;;;6.06;nan
8501;BME280;4288;48.484;10.024;2023-04-08T00:45:10;95746.41;;;6.05;nan
8501;BME280;4288;48.484;10.024;2023-04-08T00:47:37;95735.38;;;6.03;nan
8501;BME280;4288;48.484;10.024;2023-04-08T00:50:09;95742.81;;;5.97;nan
8501;BME280;4288;48.484;10.024;2023-04-08T00:52:36;95745.31;;;6.06;nan
8501;BME280;4288;48.484;10.024;2023-04-08T00:55:05;95741.53;;;6.07;nan
8501;BME280;4288;48.484;10.024;2023-04-08T00:57:32;95743.75;;;6.05;nan
8501;BME280;4288;48.484;10.024;2023-04-08T01:00:00;95751.28;;;6.03;nan
8501;BME280;4288;48.484;10.024;2023-04-08T01:02:34;95743.69;;;6.01;nan
8501;BME280;4288;48.484;10.024;2023-04-08T01:05:05;95742.06;;;5.97;nan
8501;BME280;4288;48.484;10.024;2023-04-08T01:07:37;95740.44;;;5.92;nan
8501;BME280;4288;48.484;10.024;2023-04-08T01:10:14;95742.06;;;5.97;nan
8501;BME280;4288;48.484;10.024;2023-04-08T01:12:49;95729.00;;;5.88;nan
8501;BME280;4288;48.484;10.024;2023-04-08T01:15:17;95734.38;;;5.92;nan
8501;BME280;4288;48.484;10.024;2023-04-08T01:17:46;95736.00;;;5.96;nan
8501;BME280;4288;48.484;10.024;2023-04-08T01:20:15;95742.06;;;5.97;nan
8501;BME280;4288;48.484;10.024;2023-04-08T01:22:57;95739.81;;;5.99;nan
8501;BME280;4288;48.484;10.024;2023-04-08T01:25:32;95740.00;;;6.06;nan
8501;BME280;4288;48.484;10.024;2023-04-08T01:28:06;95737.59;;;6.01;nan
8501;BME280;4288;48.484;10.024;2023-04-08T01:30:34;95742.16;;;6.00;nan
8501;BME280;4288;48.484;10.024;2023-04-08T01:33:02;95741.22;;;5.93;nan
8501;BME280;4288;48.484;10.024;2023-04-08T01:35:30;95739.25;;;5.90;nan
8501;BME280;4288;48.484;10.024;2023-04-08T01:37:58;95738.81;;;5.88;nan
8501;BME280;4288;48.484;10.024;2023-04-08T01:40:26;95741.47;;;5.88;nan
8501;BME280;4288;48.484;10.024;2023-04-08T01:42:55;95741.22;;;5.93;nan
8501;BME280;4288;48.484;10.024;2023-04-08T01:45:25;95739.94;;;5.87;nan
8501;BME280;4288;48.484;10.024;2023-04-08T01:47:52;95745.53;;;5.70;nan
8501;BME280;4288;48.484;10.024;2023-04-08T01:50:21;95737.69;;;5.58;nan
8501;BME280;4288;48.484;10.024;2023-04-08T01:52:51;95735.91;;;5.62;nan
8501;BME280;4288;48.484;10.024;2023-04-08T01:55:19;95732.84;;;5.60;nan
8501;BME280;4288;48.484;10.024;2023-04-08T01:57:50;95741.59;;;5.48;nan
8501;BME280;4288;48.484;10.024;2023-04-08T02:00:21;95747.59;;;5.45;nan
8501;BME280;4288;48.484;10.024;2023-04-08T02:02:52;95745.38;;;5.47;nan
8501;BME280;4288;48.484;10.024;2023-04-08T02:05:21;95745.47;;;5.51;nan
8501;BME280;4288;48.484;10.024;2023-04-08T02:07:48;95753.41;;;5.51;nan
8501;BME280;4288;48.484;10.024;2023-04-08T02:10:16;95751.47;;;5.48;nan
8501;BME280;4288;48.484;10.024;2023-04-08T02:12:44;95744.38;;;5.52;nan
8501;BME280;4288;48.484;10.024;2023-04-08T02:15:11;95750.53;;;5.56;nan
8501;BME280;4288;48.484;10.024;2023-04-08T02:17:43;95750.25;;;5.61;nan
8501;BME280;4288;48.484;10.024;2023-04-08T02:20:16;95745.81;;;5.65;nan
8501;BME280;4288;48.484;10.024;2023-04-08T02:22:47;95755.47;;;5.73;nan
8501;BME280;4288;48.484;10.024;2023-04-08T02:25:18;95744.63;;;5.78;nan
8501;BME280;4288;48.484;10.024;2023-04-08T02:27:48;95745.81;;;5.80;nan
8501;BME280;4288;48.484;10.024;2023-04-08T02:30:16;95753.00;;;5.80;nan
8501;BME280;4288;48.484;10.024;2023-04-08T02:32:44;95750.56;;;5.87;nan
8501;BME280;4288;48.484;10.024;2023-04-08T02:35:15;95746.34;;;5.86;nan
8501;BME280;4288;48.484;10.024;2023-04-08T02:37:45;95752.94;;;5.92;nan
8501;BME280;4288;48.484;10.024;2023-04-08T02:40:26;95751.84;;;5.93;nan
8501;BME280;4288;48.484;10.024;2023-04-08T02:42:53;95754.22;;;5.98;nan
8501;BME280;4288;48.484;10.024;2023-04-08T02:45:21;95748.41;;;5.92;nan
8501;BME280;4288;48.484;10.024;2023-04-08T02:47:49;95750.28;;;5.92;nan
8501;BME280;4288;48.484;10.024;2023-04-08T02:50:17;95748.34;;;5.89;nan
8501;BME280;4288;48.484;10.024;2023-04-08T02:52:44;95744.28;;;5.79;nan
8501;BME280;4288;48.484;10.024;2023-04-08T02:55:11;95754.31;;;5.86;nan
8501;BME280;4288;48.484;10.024;2023-04-08T02:57:40;95763.03;;;5.86;nan
8501;BME280;4288;48.484;10.024;2023-04-08T03:00:09;95756.97;;;5.86;nan
8501;BME280;4288;48.484;10.024;2023-04-08T03:02:36;95761.06;;;5.83;nan
8501;BME280;4288;48.484;10.024;2023-04-08T03:05:05;95760.75;;;5.85;nan
8501;BME280;4288;48.484;10.024;2023-04-08T03:07:33;95754.66;;;5.84;nan
8501;BME280;4288;48.484;10.024;2023-04-08T03:10:01;95756.28;;;5.89;nan
8501;BME280;4288;48.484;10.024;2023-04-08T03:12:28;95756.44;;;5.80;nan
8501;BME280;4288;48.484;10.024;2023-04-08T03:14:56;95761.66;;;5.77;nan
8501;BME280;4288;48.484;10.024;2023-04-08T03:17:23;95764.28;;;5.77;nan
8501;BME280;4288;48.484;10.024;2023-04-08T03:19:50;95760.94;;;5.80;nan
8501;BME280;4288;48.484;10.024;2023-04-08T03:22:17;95767.28;;;5.75;nan
8501;BME280;4288;48.484;10.024;2023-04-08T03:24:46;95761.56;;;5.73;nan
8501;BME280;4288;48.484;10.024;2023-04-08T03:27:13;95758.56;;;5.75;nan
8501;BME280;4288;48.484;10.024;2023-04-08T03:29:40;95760.19;;;5.79;nan
8501;BME280;4288;48.484;10.024;2023-04-08T03:32:07;95771.03;;;5.74;nan
8501;BME280;4288;48.484;10.024;2023-04-08T03:34:34;95763.88;;;5.75;nan
8501;BME280;4288;48.484;10.024;2023-04-08T03:37:01;95761.66;;;5.77;nan
8501;BME280;4288;48.484;10.024;2023-04-08T03:39:28;95772.91;;;5.74;nan
8501;BME280;4288;48.484;10.024;2023-04-08T03:41:57;95768.03;;;5.76;nan
8501;BME280;4288;48.484;10.024;2023-04-08T03:44:25;95761.22;;;5.75;nan
8501;BME280;4288;48.484;10.024;2023-04-08T03:46:52;95765.81;;;5.78;nan
8501;BME280;4288;48.484;10.024;2023-04-08T03:49:20;95772.25;;;5.77;nan
8501;BME280;4288;48.484;10.024;2023-04-08T03:51:47;95769.94;;;5.75;nan
8501;BME280;4288;48.484;10.024;2023-04-08T03:54:14;95766.69;;;5.82;nan
8501;BME280;4288;48.484;10.024;2023-04-08T03:56:41;95765.06;;;5.77;nan
8501;BME280;4288;48.484;10.024;2023-04-08T03:59:09;95772.16;;;5.73;nan
8501;BME280;4288;48.484;10.024;2023-04-08T04:01:36;95771.41;;;5.73;nan
8501;BME280;4288;48.484;10.024;2023-04-08T04:04:03;95766.53;;;5.75;nan
8501;BME280;4288;48.484;10.024;2023-04-08T04:06:31;95774.03;;;5.73;nan
8501;BME280;4288;48.484;10.024;2023-04-08T04:08:58;95772.75;;;5.67;nan
8501;BME280;4288;48.484;10.024;2023-04-08T04:11:25;95769.41;;;5.70;nan
8501;BME280;4288;48.484;10.024;2023-04-08T04:13:52;95775.84;;;5.69;nan
8501;BME280;4288;48.484;10.024;2023-04-08T04:16:21;95774.72;;;5.70;nan
8501;BME280;4288;48.484;10.024;2023-04-08T04:18:48;95775.91;;;5.72;nan
8501;BME280;4288;48.484;10.024;2023-04-08T04:21:15;95778.91;;;5.71;nan
8501;BME280;4288;48.484;10.024;2023-04-08T04:23:42;95778.06;;;5.67;nan
8501;BME280;4288;48.484;10.024;2023-04-08T04:26:09;95780.72;;;5.67;nan
8501;BME280;4288;48.484;10.024;2023-04-08T04:28:37;95780.78;;;5.70;nan
8501;BME280;4288;48.484;10.024;2023-04-08T04:31:04;95786.53;;;5.72;nan
8501;BME280;4288;48.484;10.024;2023-04-08T04:33:32;95784.88;;;5.68;nan
8501;BME280;4288;48.484;10.024;2023-04-08T04:36:00;95787.97;;;5.70;nan
8501;BME280;4288;48.484;10.024;2023-04-08T04:38:27;95782.25;;;5.68;nan
8501;BME280;4288;48.484;10.024;2023-04-08T04:40:54;95790.19;;;5.68;nan
8501;BME280;4288;48.484;10.024;2023-04-08T04:43:21;95779.69;;;5.71;nan
8501;BME280;4288;48.484;10.024;2023-04-08T04:45:48;95783.09;;;5.72;nan
8501;BME280;4288;48.484;10.024;2023-04-08T04:48:15;95785.75;;;5.72;nan
8501;BME280;4288;48.484;10.024;2023-04-08T04:50:43;95786.44;;;5.69;nan
8501;BME280;4288;48.484;10.024;2023-04-08T04:53:10;95789.75;;;5.66;nan
8501;BME280;4288;48.484;10.024;2023-04-08T04:55:37;95789.00;;;5.65;nan
8501;BME280;4288;48.484;10.024;2023-04-08T04:58:05;95789.44;;;5.67;nan
8501;BME280;4288;48.484;10.024;2023-04-08T05:00:32;95790.53;;;5.66;nan
8501;BME280;4288;48.484;10.024;2023-04-08T05:02:59;95789.09;;;5.69;nan
8501;BME280;4288;48.484;10.024;2023-04-08T05:05:26;95783.00;;;5.68;nan
8501;BME280;4288;48.484;10.024;2023-04-08T05:07:54;95795.19;;;5.69;nan
8501;BME280;4288;48.484;10.024;2023-04-08T05:10:22;95798.94;;;5.68;nan
8501;BME280;4288;48.484;10.024;2023-04-08T05:12:49;95792.53;;;5.69;nan
8501;BME280;4288;48.484;10.024;2023-04-08T05:15:16;95795.75;;;5.63;nan
8501;BME280;4288;48.484;10.024;2023-04-08T05:17:43;95798.06;;;5.64;nan
8501;BME280;4288;48.484;10.024;2023-04-08T05:20:10;95798.94;;;5.68;nan
8501;BME280;4288;48.484;10.024;2023-04-08T05:22:37;95798.50;;;5.66;nan
8501;BME280;4288;48.484;10.024;2023-04-08T05:25:07;95803.28;;;5.61;nan
8501;BME280;4288;48.484;10.024;2023-04-08T05:27:34;95812.53;;;5.67;nan
8501;BME280;4288;48.484;10.024;2023-04-08T05:30:01;95816.97;;;5.63;nan
8501;BME280;4288;48.484;10.024;2023-04-08T05:32:29;95809.72;;;5.60;nan
8501;BME280;4288;48.484;10.024;2023-04-08T05:34:56;95807.50;;;5.62;nan
8501;BME280;4288;48.484;10.024;2023-04-08T05:37:23;95811.66;;;5.63;nan
8501;BME280;4288;48.484;10.024;2023-04-08T05:39:50;95813.88;;;5.61;nan
8501;BME280;4288;48.484;10.024;2023-04-08T05:42:18;95821.16;;;5.64;nan
8501;BME280;4288;48.484;10.024;2023-04-08T05:44:46;95822.63;;;5.61;nan
8501;BME280;4288;48.484;10.024;2023-04-08T05:47:13;95824.78;;;5.71;nan
8501;BME280;4288;48.484;10.024;2023-04-08T05:49:41;95823.13;;;5.67;nan
8501;BME280;4288;48.484;10.024;2023-04-08T05:52:08;95824.22;;;5.66;nan
8501;BME280;4288;48.484;10.024;2023-04-08T05:54:35;95819.56;;;5.75;nan
8501;BME280;4288;48.484;10.024;2023-04-08T05:57:02;95825.91;;;5.86;nan
8501;BME280;4288;48.484;10.024;2023-04-08T05:59:30;95835.84;;;5.89;nan
8501;BME280;4288;48.484;10.024;2023-04-08T06:01:57;95832.34;;;5.85;nan
8501;BME280;4288;48.484;10.024;2023-04-08T06:04:24;95829.59;;;5.97;nan
8501;BME280;4288;48.484;10.024;2023-04-08T06:06:51;95838.31;;;5.97;nan
8501;BME280;4288;48.484;10.024;2023-04-08T06:09:18;95834.50;;;5.95;nan
8501;BME280;4288;48.484;10.024;2023-04-08T06:11:45;95845.69;;;6.04;nan
8501;BME280;4288;48.484;10.024;2023-04-08T06:14:14;95843.03;;;6.04;nan
8501;BME280;4288;48.484;10.024;2023-04-08T06:16:42;95845.78;;;6.07;nan
8501;BME280;4288;48.484;10.024;2023-04-08T06:19:10;95852.03;;;6.15;nan
8501;BME280;4288;48.484;10.024;2023-04-08T06:21:37;95849.88;;;6.20;nan
8501;BME280;4288;48.484;10.024;2023-04-08T06:24:05;95851.78;;;6.20;nan
8501;BME280;4288;48.484;10.024;2023-04-08T06:26:32;95859.41;;;6.21;nan
8501;BME280;4288;48.484;10.024;2023-04-08T06:28:59;95850.72;;;6.24;nan
8501;BME280;4288;48.484;10.024;2023-04-08T06:31:27;95858.88;;;6.16;nan
8501;BME280;4288;48.484;10.024;2023-04-08T06:33:56;95860.25;;;6.10;nan
8501;BME280;4288;48.484;10.024;2023-04-08T06:36:23;95862.03;;;6.21;nan
8501;BME280;4288;48.484;10.024;2023-04-08T06:38:51;95864.00;;;6.09;nan
8501;BME280;4288;48.484;10.024;2023-04-08T06:41:18;95869.56;;;6.19;nan
8501;BME280;4288;48.484;10.024;2023-04-08T06:43:45;95869.81;;;6.14;nan
8501;BME280;4288;48.484;10.024;2023-04-08T06:46:12;95869.06;;;6.14;nan
8501;BME280;4288;48.484;10.024;2023-04-08T06:48:39;95869.66;;;6.07;nan
8501;BME280;4288;48.484;10.024;2023-04-08T06:51:07;95874.53;;;6.05;nan
8501;BME280;4288;48.484;10.024;2023-04-08T06:53:34;95873.25;;;5.99;nan
8501;BME280;4288;48.484;10.024;2023-04-08T06:56:01;95876.25;;;5.98;nan
8501;BME280;4288;48.484;10.024;2023-04-08T06:58:29;95880.09;;;6.00;nan
8501;BME280;4288;48.484;10.024;2023-04-08T07:00:56;95876.25;;;6.13;nan
8501;BME280;4288;48.484;10.024;2023-04-08T07:03:25;95876.09;;;6.06;nan
8501;BME280;4288;48.484;10.024;2023-04-08T07:05:52;95877.34;;;6.12;nan
8501;BME280;4288;48.484;10.024;2023-04-08T07:08:21;95879.41;;;6.19;nan
8501;BME280;4288;48.484;10.024;2023-04-08T07:10:48;95883.63;;;6.20;nan
8501;BME280;4288;48.484;10.024;2023-04-08T07:13:17;95883.19;;;6.34;nan
8501;BME280;4288;48.484;10.024;2023-04-08T07:15:44;95877.19;;;6.21;nan
8501;BME280;4288;48.484;10.024;2023-04-08T07:18:11;95879.34;;;6.31;nan
8501;BME280;4288;48.484;10.024;2023-04-08T07:20:39;95884.38;;;6.36;nan
8501;BME280;4288;48.484;10.024;2023-04-08T07:23:06;95889.94;;;6.47;nan
8501;BME280;4288;48.484;10.024;2023-04-08T07:25:35;95889.50;;;6.60;nan
8501;BME280;4288;48.484;10.024;2023-04-08T07:28:02;95884.69;;;6.66;nan
8501;BME280;4288;48.484;10.024;2023-04-08T07:30:30;95893.59;;;6.73;nan
8501;BME280;4288;48.484;10.024;2023-04-08T07:32:57;95898.25;;;6.61;nan
8501;BME280;4288;48.484;10.024;2023-04-08T07:35:24;95899.28;;;6.56;nan
8501;BME280;4288;48.484;10.024;2023-04-08T07:37:51;95897.81;;;6.59;nan
8501;BME280;4288;48.484;10.024;2023-04-08T07:40:20;95900.97;;;6.64;nan
8501;BME280;4288;48.484;10.024;2023-04-08T07:42:48;95899.22;;;6.87;nan
8501;BME280;4288;48.484;10.024;2023-04-08T07:45:16;95898.28;;;6.95;nan
8501;BME280;4288;48.484;10.024;2023-04-08T07:47:43;95894.91;;;6.98;nan
8501;BME280;4288;48.484;10.024;2023-04-08T07:50:11;95887.88;;;7.06;nan
8501;BME280;4288;48.484;10.024;2023-04-08T07:52:38;95893.16;;;7.41;nan
8501;BME280;4288;48.484;10.024;2023-04-08T07:55:06;95885.66;;;7.27;nan
8501;BME280;4288;48.484;10.024;2023-04-08T07:57:33;95891.75;;;7.47;nan
8501;BME280;4288;48.484;10.024;2023-04-08T08:00:02;95903.38;;;7.58;nan
8501;BME280;4288;48.484;10.024;2023-04-08T08:02:29;95898.41;;;7.56;nan
8501;BME280;4288;48.484;10.024;2023-04-08T08:04:56;95893.56;;;7.81;nan
8501;BME280;4288;48.484;10.024;2023-04-08T08:07:23;95905.88;;;7.70;nan
8501;BME280;4288;48.484;10.024;2023-04-08T08:09:50;95900.75;;;7.80;nan
8501;BME280;4288;48.484;10.024;2023-04-08T08:12:17;95907.34;;;7.67;nan
8501;BME280;4288;48.484;10.024;2023-04-08T08:14:44;95912.47;;;7.76;nan
8501;BME280;4288;48.484;10.024;2023-04-08T08:17:13;95914.75;;;7.96;nan
8501;BME280;4288;48.484;10.024;2023-04-08T08:19:40;95917.50;;;7.81;nan
8501;BME280;4288;48.484;10.024;2023-04-08T08:22:07;95918.91;;;8.17;nan
8501;BME280;4288;48.484;10.024;2023-04-08T08:24:34;95915.75;;;8.30;nan
8501;BME280;4288;48.484;10.024;2023-04-08T08:27:01;95908.66;;;7.96;nan
8501;BME280;4288;48.484;10.024;2023-04-08T08:29:30;95922.78;;;8.00;nan
8501;BME280;4288;48.484;10.024;2023-04-08T08:31:57;95916.84;;;8.06;nan
8501;BME280;4288;48.484;10.024;2023-04-08T08:34:26;95914.91;;;8.03;nan
8501;BME280;4288;48.484;10.024;2023-04-08T08:36:53;95928.84;;;7.97;nan
8501;BME280;4288;48.484;10.024;2023-04-08T08:39:20;95928.97;;;7.85;nan
8501;BME280;4288;48.484;10.024;2023-04-08T08:41:47;95935.56;;;7.91;nan
8501;BME280;4288;48.484;10.024;2023-04-08T08:44:15;95937.78;;;8.08;nan
8501;BME280;4288;48.484;10.024;2023-04-08T08:46:44;95939.13;;;7.98;nan
8501;BME280;4288;48.484;10.024;2023-04-08T08:49:13;95936.72;;;8.13;nan
8501;BME280;4288;48.484;10.024;2023-04-08T08:51:45;95942.56;;;8.41;nan
8501;BME280;4288;48.484;10.024;2023-04-08T08:54:13;95952.84;;;8.87;nan
8501;BME280;4288;48.484;10.024;2023-04-08T08:56:40;95947.28;;;8.96;nan
8501;BME280;4288;48.484;10.024;2023-04-08T08:59:08;95946.44;;;8.92;nan
8501;BME280;4288;48.484;10.024;2023-04-08T09:01:36;95951.03;;;9.18;nan
8501;BME280;4288;48.484;10.024;2023-04-08T09:04:13;95948.22;;;8.84;nan
8501;BME280;4288;48.484;10.024;2023-04-08T09:06:43;95952.44;;;8.85;nan
8501;BME280;4288;48.484;10.024;2023-04-08T09:09:12;95957.19;;;8.73;nan
8501;BME280;4288;48.484;10.024;2023-04-08T09:11:41;95951.09;;;8.72;nan
8501;BME280;4288;48.484;10.024;2023-04-08T09:14:19;95957.00;;;8.85;nan
8501;BME280;4288;48.484;10.024;2023-04-08T09:16:46;95961.50;;;8.58;nan
8501;BME280;4288;48.484;10.024;2023-04-08T09:19:14;95960.88;;;8.65;nan
8501;BME280;4288;48.484;10.024;2023-04-08T09:21:42;95957.44;;;8.23;nan
8501;BME280;4288;48.484;10.024;2023-04-08T09:24:28;95955.91;;;8.63;nan
8501;BME280;4288;48.484;10.024;2023-04-08T09:26:55;95961.22;;;9.12;nan
8501;BME280;4288;48.484;10.024;2023-04-08T09:29:24;95957.66;;;9.31;nan
8501;BME280;4288;48.484;10.024;2023-04-08T09:31:57;95964.84;;;9.27;nan
8501;BME280;4288;48.484;10.024;2023-04-08T09:34:26;95962.66;;;9.06;nan
8501;BME280;4288;48.484;10.024;2023-04-08T09:36:55;95963.84;;;9.09;nan
8501;BME280;4288;48.484;10.024;2023-04-08T09:39:22;95956.69;;;8.90;nan
8501;BME280;4288;48.484;10.024;2023-04-08T09:41:50;95959.22;;;9.06;nan
8501;BME280;4288;48.484;10.024;2023-04-08T09:44:19;95953.22;;;8.63;nan
8501;BME280;4288;48.484;10.024;2023-04-08T09:46:58;95949.84;;;8.44;nan
8501;BME280;4288;48.484;10.024;2023-04-08T09:49:32;95951.09;;;8.50;nan
8501;BME280;4288;48.484;10.024;2023-04-08T09:52:07;95948.97;;;8.81;nan
8501;BME280;4288;48.484;10.024;2023-04-08T09:54:44;95957.00;;;8.62;nan
8501;BME280;4288;48.484;10.024;2023-04-08T09:57:19;95947.50;;;8.87;nan
8501;BME280;4288;48.484;10.024;2023-04-08T09:59:55;95942.03;;;8.54;nan
8501;BME280;4288;48.484;10.024;2023-04-08T10:02:29;95947.13;;;8.40;nan
8501;BME280;4288;48.484;10.024;2023-04-08T10:05:02;95949.22;;;8.50;nan
8501;BME280;4288;48.484;10.024;2023-04-08T10:07:32;95950.25;;;8.68;nan
8501;BME280;4288;48.484;10.024;2023-04-08T10:10:01;95957.97;;;8.73;nan
8501;BME280;4288;48.484;10.024;2023-04-08T10:12:28;95965.38;;;8.61;nan
8501;BME280;4288;48.484;10.024;2023-04-08T10:15:32;95967.59;;;8.36;nan
8501;BME280;4288;48.484;10.024;2023-04-08T10:18:30;95958.38;;;8.53;nan
8501;BME280;4288;48.484;10.024;2023-04-08T10:21:01;95964.78;;;8.71;nan
8501;BME280;4288;48.484;10.024;2023-04-08T10:23:56;95965.53;;;8.71;nan
8501;BME280;4288;48.484;10.024;2023-04-08T10:26:35;95964.59;;;8.60;nan
8501;BME280;4288;48.484;10.024;2023-04-08T10:29:42;95957.00;;;8.40;nan
8501;BME280;4288;48.484;10.024;2023-04-08T10:32:28;95954.97;;;8.52;nan
8501;BME280;4288;48.484;10.024;2023-04-08T10:34:55;95955.06;;;8.59;nan
8501;BME280;4288;48.484;10.024;2023-04-08T10:37:23;95953.75;;;8.72;nan
8501;BME280;4288;48.484;10.024;2023-04-08T10:39:53;95962.03;;;8.45;nan
8501;BME280;4288;48.484;10.024;2023-04-08T10:42:27;95953.75;;;8.50;nan
8501;BME280;4288;48.484;10.024;2023-04-08T10:45:00;95949.91;;;8.47;nan
8501;BME280;4288;48.484;10.024;2023-04-08T10:47:28;95954.28;;;8.59;nan
8501;BME280;4288;48.484;10.024;2023-04-08T10:49:55;95952.69;;;8.54;nan
8501;BME280;4288;48.484;10.024;2023-04-08T10:52:22;95944.50;;;8.66;nan
8501;BME280;4288;48.484;10.024;2023-04-08T10:54:53;95946.25;;;8.55;nan
8501;BME280;4288;48.484;10.024;2023-04-08T10:57:24;95946.25;;;8.55;nan
8501;BME280;4288;48.484;10.024;2023-04-08T10:59:51;95946.84;;;8.45;nan
8501;BME280;4288;48.484;10.024;2023-04-08T11:02:18;95953.28;;;8.44;nan
8501;BME280;4288;48.484;10.024;2023-04-08T11:04:46;95947.88;;;8.41;nan
8501;BME280;4288;48.484;10.024;2023-04-08T11:07:13;95959.13;;;8.76;nan
8501;BME280;4288;48.484;10.024;2023-04-08T11:09:40;95948.66;;;8.41;nan
8501;BME280;4288;48.484;10.024;2023-04-08T11:12:09;95949.22;;;8.50;nan
8501;BME280;4288;48.484;10.024;2023-04-08T11:14:39;95949.69;;;8.56;nan
8501;BME280;4288;48.484;10.024;2023-04-08T11:17:07;95948.19;;;8.36;nan
8501;BME280;4288;48.484;10.024;2023-04-08T11:19:35;95952.63;;;8.73;nan
8501;BME280;4288;48.484;10.024;2023-04-08T11:22:04;95951.56;;;8.55;nan
8501;BME280;4288;48.484;10.024;2023-04-08T11:24:32;95954.34;;;8.62;nan
8501;BME280;4288;48.484;10.024;2023-04-08T11:26:59;95953.50;;;8.58;nan
8501;BME280;4288;48.484;10.024;2023-04-08T11:29:29;95941.56;;;8.71;nan
8501;BME280;4288;48.484;10.024;2023-04-08T11:31:56;95944.81;;;8.39;nan
8501;BME280;4288;48.484;10.024;2023-04-08T11:34:24;95945.16;;;8.37;nan
8501;BME280;4288;48.484;10.024;2023-04-08T11:36:52;95949.56;;;8.49;nan
8501;BME280;4288;48.484;10.024;2023-04-08T11:39:23;95948.06;;;8.51;nan
8501;BME280;4288;48.484;10.024;2023-04-08T11:41:50;95953.41;;;8.51;nan
8501;BME280;4288;48.484;10.024;2023-04-08T11:44:18;95953.88;;;8.79;nan
8501;BME280;4288;48.484;10.024;2023-04-08T11:46:52;95949.56;;;8.71;nan
8501;BME280;4288;48.484;10.024;2023-04-08T11:49:22;95947.34;;;8.54;nan
8501;BME280;4288;48.484;10.024;2023-04-08T11:51:57;95950.16;;;8.61;nan
8501;BME280;4288;48.484;10.024;2023-04-08T11:54:29;95945.56;;;8.84;nan
8501;BME280;4288;48.484;10.024;2023-04-08T11:56:57;95948.59;;;9.09;nan
8501;BME280;4288;48.484;10.024;2023-04-08T11:59:25;95951.59;;;9.04;nan
8501;BME280;4288;48.484;10.024;2023-04-08T12:01:53;95951.50;;;8.97;nan
8501;BME280;4288;48.484;10.024;2023-04-08T12:04:20;95953.94;;;8.60;nan
8501;BME280;4288;48.484;10.024;2023-04-08T12:06:47;95955.66;;;8.49;nan
8501;BME280;4288;48.484;10.024;2023-04-08T12:09:15;95952.34;;;8.56;nan
8501;BME280;4288;48.484;10.024;2023-04-08T12:11:42;95960.16;;;8.68;nan
8501;BME280;4288;48.484;10.024;2023-04-08T12:14:11;95962.47;;;8.69;nan
8501;BME280;4288;48.484;10.024;2023-04-08T12:16:38;95959.81;;;8.69;nan
8501;BME280;4288;48.484;10.024;2023-04-08T12:19:07;95964.41;;;8.95;nan
8501;BME280;4288;48.484;10.024;2023-04-08T12:21:34;95964.88;;;9.01;nan
8501;BME280;4288;48.484;10.024;2023-04-08T12:24:01;95955.53;;;9.14;nan
8501;BME280;4288;48.484;10.024;2023-04-08T12:26:28;95958.38;;;9.02;nan
8501;BME280;4288;48.484;10.024;2023-04-08T12:28:56;95958.66;;;9.19;nan
8501;BME280;4288;48.484;10.024;2023-04-08T12:31:23;95966.41;;;9.28;nan
8501;BME280;4288;48.484;10.024;2023-04-08T12:33:50;95962.91;;;9.24;nan
8501;BME280;4288;48.484;10.024;2023-04-08T12:36:19;95962.75;;;9.39;nan
8501;BME280;4288;48.484;10.024;2023-04-08T12:38:48;95964.66;;;9.13;nan
8501;BME280;4288;48.484;10.024;2023-04-08T12:41:15;95954.31;;;9.34;nan
8501;BME280;4288;48.484;10.024;2023-04-08T12:43:42;95958.91;;;9.37;nan
8501;BME280;4288;48.484;10.024;2023-04-08T12:46:10;95968.25;;;9.24;nan
8501;BME280;4288;48.484;10.024;2023-04-08T12:48:37;95963.34;;;9.03;nan
8501;BME280;4288;48.484;10.024;2023-04-08T12:51:04;95961.69;;;9.18;nan
8501;BME280;4288;48.484;10.024;2023-04-08T12:53:33;95958.69;;;9.23;nan
8501;BME280;4288;48.484;10.024;2023-04-08T12:56:00;95959.22;;;9.06;nan
8501;BME280;4288;48.484;10.024;2023-04-08T12:58:27;95966.38;;;9.02;nan
8501;BME280;4288;48.484;10.024;2023-04-08T13:00:54;95955.16;;;9.15;nan
8501;BME280;4288;48.484;10.024;2023-04-08T13:03:21;95954.72;;;9.10;nan
8501;BME280;4288;48.484;10.024;2023-04-08T13:05:48;95961.19;;;9.38;nan
8501;BME280;4288;48.484;10.024;2023-04-08T13:08:16;95955.53;;;9.14;nan
8501;BME280;4288;48.484;10.024;2023-04-08T13:10:44;95962.50;;;9.22;nan
8501;BME280;4288;48.484;10.024;2023-04-08T13:13:11;95963.56;;;9.17;nan
8501;BME280;4288;48.484;10.024;2023-04-08T13:15:39;95951.00;;;8.91;nan
8501;BME280;4288;48.484;10.024;2023-04-08T13:18:06;95959.25;;;8.83;nan
8501;BME280;4288;48.484;10.024;2023-04-08T13:20:33;95958.28;;;8.94;nan
8501;BME280;4288;48.484;10.024;2023-04-08T13:23:00;95952.84;;;8.87;nan
8501;BME280;4288;48.484;10.024;2023-04-08T13:25:27;95966.59;;;9.16;nan
8501;BME280;4288;48.484;10.024;2023-04-08T13:27:56;95960.34;;;9.05;nan
8501;BME280;4288;48.484;10.024;2023-04-08T13:30:23;95963.69;;;8.98;nan
8501;BME280;4288;48.484;10.024;2023-04-08T13:32:50;95966.34;;;8.98;nan
8501;BME280;4288;48.484;10.024;2023-04-08T13:35:17;95970.00;;;9.13;nan
8501;BME280;4288;48.484;10.024;2023-04-08T13:37:44;95966.16;;;9.10;nan
8501;BME280;4288;48.484;10.024;2023-04-08T13:40:12;95968.97;;;8.94;nan
8501;BME280;4288;48.484;10.024;2023-04-08T13:42:39;95965.16;;;8.95;nan
8501;BME280;4288;48.484;10.024;2023-04-08T13:45:09;95967.06;;;8.95;nan
8501;BME280;4288;48.484;10.024;2023-04-08T13:47:36;95966.25;;;8.68;nan
8501;BME280;4288;48.484;10.024;2023-04-08T13:50:04;95961.75;;;8.95;nan
8501;BME280;4288;48.484;10.024;2023-04-08T13:52:32;95971.22;;;8.47;nan